createdAt,value
2022-12-19T00:00:34.209Z,35.05
2022-12-19T00:03:21.972Z,35.10
2022-12-19T00:06:09.960Z,32.05
2022-12-19T00:09:00.575Z,24.08
2022-12-19T00:11:50.361Z,30.98
2022-12-19T00:14:38.143Z,32.78
2022-12-19T00:17:25.821Z,28.60
2022-12-19T00:20:13.570Z,25.15
2022-12-19T00:23:05.347Z,24.33
2022-12-19T00:25:56.031Z,30.83
2022-12-19T00:28:46.658Z,30.65
2022-12-19T00:31:37.034Z,33.97
2022-12-19T00:34:27.851Z,34.40
2022-12-19T00:37:15.657Z,34.97
2022-12-19T00:40:03.496Z,29.42
2022-12-19T00:42:53.633Z,30.23
2022-12-19T00:45:41.700Z,34.00
2022-12-19T00:48:31.876Z,36.45
2022-12-19T00:51:22.158Z,33.20
2022-12-19T00:54:12.236Z,32.78
2022-12-19T00:57:00.760Z,28.85
2022-12-19T00:59:48.655Z,30.48
2022-12-19T01:02:36.534Z,30.80
2022-12-19T01:05:24.479Z,36.70
2022-12-19T01:08:12.688Z,38.75
2022-12-19T01:11:03.313Z,35.92
2022-12-19T01:13:50.838Z,38.45
2022-12-19T01:16:38.826Z,31.00
2022-12-19T01:19:30.239Z,37.55
2022-12-19T01:22:29.007Z,32.38
2022-12-19T01:25:21.393Z,26.85
2022-12-19T01:28:13.856Z,32.30
2022-12-19T01:31:06.071Z,32.75
2022-12-19T01:33:55.482Z,31.08
2022-12-19T01:36:43.878Z,32.75
2022-12-19T01:39:31.587Z,31.38
2022-12-19T01:42:24.151Z,27.95
2022-12-19T01:45:30.389Z,31.77
2022-12-19T01:48:28.673Z,32.67
2022-12-19T01:51:24.095Z,30.20
2022-12-19T01:54:16.113Z,30.90
2022-12-19T01:57:09.128Z,26.88
2022-12-19T02:00:00.182Z,28.15
2022-12-19T02:03:02.122Z,32.38
2022-12-19T02:05:50.441Z,32.90
2022-12-19T02:08:44.924Z,35.30
2022-12-19T02:11:32.702Z,39.83
2022-12-19T02:14:21.103Z,32.78
2022-12-19T02:17:24.415Z,29.25
2022-12-19T02:20:46.928Z,32.70
2022-12-19T02:23:49.744Z,35.20
2022-12-19T02:27:08.477Z,34.92
2022-12-19T02:30:17.924Z,37.22
2022-12-19T02:33:20.595Z,32.22
2022-12-19T02:36:19.009Z,30.88
2022-12-19T02:39:12.376Z,30.85
2022-12-19T02:42:02.069Z,31.45
2022-12-19T02:44:52.589Z,31.20
2022-12-19T02:47:40.835Z,32.60
2022-12-19T02:50:37.206Z,37.55
2022-12-19T02:53:25.102Z,39.22
2022-12-19T02:56:33.950Z,32.17
2022-12-19T02:59:40.641Z,33.92
2022-12-19T03:03:00.666Z,42.38
2022-12-19T03:06:14.564Z,31.58
2022-12-19T03:09:07.200Z,33.80
2022-12-19T03:12:24.213Z,31.27
2022-12-19T03:15:13.790Z,35.35
2022-12-19T03:18:02.293Z,26.63
2022-12-19T03:21:11.475Z,33.30
2022-12-19T03:23:59.603Z,35.90
2022-12-19T03:26:56.796Z,32.78
2022-12-19T03:29:54.231Z,37.00
2022-12-19T03:32:45.696Z,37.40
2022-12-19T03:35:39.782Z,37.60
2022-12-19T03:38:32.329Z,30.67
2022-12-19T03:41:45.303Z,33.70
2022-12-19T03:44:37.225Z,22.17
2022-12-19T03:47:35.627Z,32.97
2022-12-19T03:50:25.658Z,37.38
2022-12-19T03:53:28.312Z,29.90
2022-12-19T03:56:31.810Z,30.35
2022-12-19T03:59:41.421Z,29.45
2022-12-19T04:02:32.800Z,42.47
2022-12-19T04:05:26.218Z,33.72
2022-12-19T04:08:15.328Z,35.47
2022-12-19T04:11:09.441Z,37.65
2022-12-19T04:14:04.176Z,35.83
2022-12-19T04:17:01.160Z,36.83
2022-12-19T04:19:56.014Z,37.53
2022-12-19T04:22:43.643Z,40.38
2022-12-19T04:25:35.814Z,33.00
2022-12-19T04:28:36.718Z,31.90
2022-12-19T04:31:24.978Z,32.70
2022-12-19T04:34:12.816Z,33.42
2022-12-19T04:37:04.089Z,31.88
2022-12-19T04:39:51.791Z,31.70
2022-12-19T04:42:39.411Z,36.53
2022-12-19T04:45:27.036Z,34.75
2022-12-19T04:48:21.165Z,34.55
2022-12-19T04:51:08.917Z,41.70
2022-12-19T04:53:56.687Z,36.97
2022-12-19T04:56:44.408Z,44.30
2022-12-19T04:59:32.327Z,43.67
2022-12-19T05:02:20.172Z,48.90
2022-12-19T05:05:08.466Z,43.72
2022-12-19T05:08:01.874Z,45.42
2022-12-19T05:10:49.761Z,44.53
2022-12-19T05:13:46.251Z,47.25
2022-12-19T05:16:33.980Z,42.00
2022-12-19T05:19:25.027Z,37.25
2022-12-19T05:22:17.475Z,37.63
2022-12-19T05:25:05.644Z,34.60
2022-12-19T05:27:53.296Z,45.47
2022-12-19T05:30:40.963Z,39.15
2022-12-19T05:33:28.588Z,39.22
2022-12-19T05:36:17.776Z,42.65
2022-12-19T05:39:05.631Z,44.45
2022-12-19T05:41:53.272Z,36.45
2022-12-19T05:44:40.995Z,50.85
2022-12-19T05:47:28.707Z,41.33
2022-12-19T05:50:18.519Z,50.15
2022-12-19T05:53:11.689Z,48.67
2022-12-19T05:56:08.686Z,60.60
2022-12-19T05:58:58.935Z,41.80
2022-12-19T06:01:47.054Z,42.60
2022-12-19T06:04:40.331Z,57.03
2022-12-19T06:07:27.992Z,47.00
2022-12-19T06:10:15.719Z,50.83
2022-12-19T06:13:03.600Z,59.75
2022-12-19T06:15:51.232Z,51.78
2022-12-19T06:18:44.256Z,46.90
2022-12-19T06:21:32.747Z,48.28
2022-12-19T06:24:21.740Z,62.50
2022-12-19T06:27:09.356Z,48.78
2022-12-19T06:29:57.123Z,55.22
2022-12-19T06:32:44.725Z,56.47
2022-12-19T06:35:32.533Z,54.72
2022-12-19T06:38:20.161Z,46.67
2022-12-19T06:41:28.137Z,59.75
2022-12-19T06:44:17.528Z,55.88
2022-12-19T06:47:05.199Z,69.60
2022-12-19T06:49:54.135Z,62.13
2022-12-19T06:52:41.924Z,85.35
2022-12-19T06:55:32.466Z,61.45
2022-12-19T06:58:24.079Z,63.53
2022-12-19T07:01:31.064Z,66.18
2022-12-19T07:04:29.801Z,79.85
2022-12-19T07:07:17.477Z,66.93
2022-12-19T07:10:06.261Z,60.70
2022-12-19T07:12:53.836Z,58.20
2022-12-19T07:15:42.147Z,69.55
2022-12-19T07:18:34.420Z,64.72
2022-12-19T07:24:12.098Z,64.50
2022-12-19T07:26:59.899Z,79.82
2022-12-19T07:29:47.495Z,69.00
2022-12-19T07:32:35.267Z,66.07
2022-12-19T07:35:23.441Z,58.90
2022-12-19T07:38:11.033Z,60.40
2022-12-19T07:41:01.927Z,74.53
2022-12-19T07:43:49.712Z,62.97
2022-12-19T07:46:37.382Z,81.60
2022-12-19T07:49:25.122Z,66.03
2022-12-19T07:52:12.825Z,72.90
2022-12-19T07:55:00.556Z,71.25
2022-12-19T07:57:48.260Z,60.72
2022-12-19T08:00:36.474Z,68.80
2022-12-19T08:03:25.151Z,67.57
2022-12-19T08:06:18.065Z,71.75
2022-12-19T08:09:17.044Z,61.45
2022-12-19T08:12:05.003Z,55.95
2022-12-19T08:14:56.971Z,58.80
2022-12-19T08:17:45.187Z,72.15
2022-12-19T08:20:32.875Z,57.58
2022-12-19T08:23:23.807Z,52.50
2022-12-19T08:26:13.691Z,58.95
2022-12-19T08:29:01.477Z,58.75
2022-12-19T08:31:49.510Z,61.72
2022-12-19T08:34:37.294Z,58.17
2022-12-19T08:37:24.906Z,60.15
2022-12-19T08:40:13.069Z,63.67
2022-12-19T08:43:01.230Z,68.00
2022-12-19T08:45:52.156Z,56.10
2022-12-19T08:48:39.850Z,78.28
2022-12-19T08:51:27.515Z,59.38
2022-12-19T08:54:15.523Z,80.30
2022-12-19T08:57:03.332Z,67.82
2022-12-19T08:59:50.928Z,55.38
2022-12-19T09:02:40.010Z,63.13
2022-12-19T09:06:03.332Z,67.97
2022-12-19T09:08:36.365Z,69.80
2022-12-19T09:11:23.960Z,64.07
2022-12-19T09:14:11.740Z,77.70
2022-12-19T09:16:59.332Z,62.55
2022-12-19T09:19:48.531Z,62.97
2022-12-19T09:22:36.195Z,67.50
2022-12-19T09:25:24.011Z,52.22
2022-12-19T09:28:27.319Z,44.90
2022-12-19T09:31:18.075Z,53.95
2022-12-19T09:34:06.212Z,50.75
2022-12-19T09:36:53.949Z,49.13
2022-12-19T09:39:41.885Z,41.30
2022-12-19T09:42:47.645Z,54.88
2022-12-19T09:45:47.990Z,52.00
2022-12-19T09:48:35.628Z,46.72
2022-12-19T09:51:42.000Z,49.55
2022-12-19T09:54:44.945Z,45.17
2022-12-19T09:57:56.813Z,58.03
2022-12-19T10:00:49.373Z,45.90
2022-12-19T10:03:50.691Z,54.45
2022-12-19T10:07:13.026Z,43.45
2022-12-19T10:12:35.144Z,45.80
2022-12-19T10:13:32.792Z,44.38
2022-12-19T10:16:39.586Z,47.88
2022-12-19T10:19:47.373Z,46.17
2022-12-19T10:22:37.761Z,45.83
2022-12-19T10:25:46.808Z,45.30
2022-12-19T10:28:58.818Z,51.80
2022-12-19T10:32:21.150Z,36.92
2022-12-19T10:35:19.775Z,49.45
2022-12-19T10:38:11.695Z,44.95
2022-12-19T10:41:28.287Z,43.80
2022-12-19T10:44:16.155Z,40.70
2022-12-19T10:47:03.938Z,39.55
2022-12-19T10:49:52.437Z,56.28
2022-12-19T10:52:52.616Z,46.03
2022-12-19T10:55:52.370Z,51.45
2022-12-19T10:58:44.491Z,44.25
2022-12-19T11:01:36.703Z,38.00
2022-12-19T11:04:31.959Z,48.88
2022-12-19T11:07:22.037Z,42.67
2022-12-19T11:11:35.103Z,43.63
2022-12-19T11:16:56.134Z,50.20
2022-12-19T11:18:25.388Z,46.65
2022-12-19T11:29:17.074Z,52.10
2022-12-19T11:29:54.948Z,46.20
2022-12-19T11:30:38.371Z,44.45
2022-12-19T11:33:18.855Z,38.00
2022-12-19T11:36:07.054Z,44.00
2022-12-19T11:38:55.417Z,44.97
2022-12-19T11:41:51.605Z,50.20
2022-12-19T11:44:48.584Z,47.90
2022-12-19T11:47:46.071Z,35.97
2022-12-19T11:50:39.640Z,45.47
2022-12-19T11:53:34.854Z,47.42
2022-12-19T11:56:25.539Z,36.80
2022-12-19T12:02:47.175Z,41.85
2022-12-19T12:05:43.314Z,40.97
2022-12-19T12:11:02.025Z,34.95
2022-12-19T12:17:24.392Z,33.72
2022-12-19T12:31:06.910Z,43.78
2022-12-19T12:31:23.145Z,43.58
2022-12-19T12:31:50.446Z,37.55
2022-12-19T12:32:02.052Z,41.00
2022-12-19T12:35:43.570Z,35.17
2022-12-19T12:37:51.093Z,34.88
2022-12-19T12:39:25.415Z,28.90
2022-12-19T12:42:53.982Z,34.30
2022-12-19T12:48:37.801Z,31.00
2022-12-19T12:51:27.086Z,29.13
2022-12-19T12:54:16.411Z,37.58
2022-12-19T12:57:04.347Z,40.90
2022-12-19T13:00:26.213Z,41.83
2022-12-19T13:03:18.318Z,32.83
2022-12-19T13:06:21.421Z,34.78
2022-12-19T13:09:09.073Z,30.00
2022-12-19T13:12:15.143Z,36.67
2022-12-19T13:15:27.765Z,30.63
2022-12-19T13:18:38.195Z,28.13
2022-12-19T13:21:25.973Z,29.85
2022-12-19T13:24:21.448Z,23.65
2022-12-19T13:27:37.855Z,28.17
2022-12-19T13:30:25.802Z,29.33
2022-12-19T13:33:13.656Z,35.45
2022-12-19T13:39:51.773Z,24.15
2022-12-19T13:40:00.639Z,30.88
2022-12-19T13:43:10.019Z,37.72
2022-12-19T13:46:27.306Z,30.58
2022-12-19T13:49:39.930Z,35.38
2022-12-19T13:52:27.700Z,54.88
2022-12-19T13:55:15.499Z,52.67
2022-12-19T13:58:05.285Z,65.43
2022-12-19T14:00:55.981Z,49.17
2022-12-19T14:03:46.881Z,47.95
2022-12-19T14:07:05.198Z,52.97
2022-12-19T14:11:29.041Z,47.20
2022-12-19T14:13:55.680Z,77.30
2022-12-19T14:16:43.508Z,55.63
2022-12-19T14:19:39.419Z,40.40
2022-12-19T14:22:27.333Z,44.40
2022-12-19T14:26:14.444Z,40.97
2022-12-19T14:28:42.573Z,50.13
2022-12-19T14:31:33.249Z,38.65
2022-12-19T14:39:22.318Z,37.20
2022-12-19T14:41:07.470Z,29.17
2022-12-19T14:51:51.418Z,31.58
2022-12-19T14:52:08.452Z,28.48
2022-12-19T14:54:26.285Z,30.58
2022-12-19T14:54:37.228Z,44.58
2022-12-19T14:56:59.715Z,29.70
2022-12-19T14:59:48.996Z,30.58
2022-12-19T15:02:39.596Z,35.30
2022-12-19T15:05:28.530Z,32.85
2022-12-19T15:10:58.073Z,27.80
2022-12-19T15:12:39.388Z,29.50
2022-12-19T15:15:24.919Z,37.90
2022-12-19T15:18:34.458Z,34.40
2022-12-19T15:21:22.395Z,29.13
2022-12-19T15:24:10.218Z,28.17
2022-12-19T15:26:57.832Z,31.35
2022-12-19T15:29:45.841Z,23.42
2022-12-19T15:32:33.395Z,31.85
2022-12-19T15:35:21.119Z,27.20
2022-12-19T15:38:09.893Z,31.50
2022-12-19T15:40:57.569Z,22.85
2022-12-19T15:46:57.915Z,25.85
2022-12-19T15:49:46.409Z,51.15
2022-12-19T15:52:39.264Z,23.80
2022-12-19T15:55:40.085Z,19.63
2022-12-19T15:58:28.786Z,28.05
2022-12-19T16:01:16.648Z,24.13
2022-12-19T16:04:04.796Z,25.77
2022-12-19T16:06:52.931Z,85.57
2022-12-19T16:09:40.634Z,71.53
2022-12-19T16:12:35.697Z,56.58
2022-12-19T16:15:29.780Z,42.45
2022-12-19T16:18:19.892Z,30.98
2022-12-19T16:21:09.945Z,40.95
2022-12-19T16:23:57.509Z,28.38
2022-12-19T16:26:51.531Z,27.05
2022-12-19T16:29:41.854Z,23.40
2022-12-19T16:32:29.777Z,19.40
2022-12-19T16:35:40.336Z,22.30
2022-12-19T16:38:28.670Z,22.00
2022-12-19T16:41:23.780Z,20.67
2022-12-19T16:44:23.990Z,19.35
2022-12-19T16:47:15.960Z,37.17
2022-12-19T16:50:17.832Z,20.45
2022-12-19T16:53:05.620Z,23.67
2022-12-19T16:55:55.639Z,26.40
2022-12-19T16:58:43.538Z,23.52
2022-12-19T17:01:31.486Z,23.98
2022-12-19T17:04:22.676Z,26.75
2022-12-19T17:07:11.243Z,22.40
2022-12-19T17:09:58.866Z,35.35
2022-12-19T17:12:48.206Z,20.13
2022-12-19T17:15:39.070Z,23.15
2022-12-19T17:18:36.082Z,22.83
2022-12-19T17:21:26.129Z,28.55
2022-12-19T17:24:17.670Z,25.00
2022-12-19T17:27:06.226Z,23.05
2022-12-19T17:29:54.027Z,35.05
2022-12-19T17:32:42.051Z,29.40
2022-12-19T17:35:34.399Z,29.98
2022-12-19T17:41:19.295Z,30.95
2022-12-19T17:44:07.025Z,34.45
2022-12-19T17:46:54.838Z,37.38
2022-12-19T17:49:42.990Z,28.48
2022-12-19T17:52:36.375Z,31.58
2022-12-19T17:55:27.773Z,35.10
2022-12-19T17:58:17.129Z,39.28
2022-12-19T18:01:04.885Z,34.22
2022-12-19T18:03:54.074Z,35.30
2022-12-19T18:06:42.609Z,26.52
2022-12-19T18:09:31.415Z,32.58
2022-12-19T18:12:19.606Z,38.90
2022-12-19T18:15:11.407Z,31.70
2022-12-19T18:17:59.143Z,43.53
2022-12-19T18:20:46.873Z,38.17
2022-12-19T18:23:35.614Z,31.35
2022-12-19T18:26:23.522Z,42.38
2022-12-19T18:29:14.787Z,47.10
2022-12-19T18:32:03.067Z,62.22
2022-12-19T18:34:53.625Z,49.72
2022-12-19T18:37:45.352Z,47.50
2022-12-19T18:40:33.629Z,38.88
2022-12-19T18:43:22.459Z,45.97
2022-12-19T18:46:15.059Z,43.50
2022-12-19T18:49:03.758Z,51.45
2022-12-19T18:51:54.408Z,38.37
2022-12-19T18:54:42.284Z,40.90
2022-12-19T18:57:32.382Z,53.75
2022-12-19T19:00:26.507Z,38.47
2022-12-19T19:03:20.303Z,46.10
2022-12-19T19:06:19.458Z,63.42
2022-12-19T19:09:16.337Z,32.80
2022-12-19T19:12:27.100Z,65.87
2022-12-19T19:15:15.515Z,73.32
2022-12-19T19:18:07.023Z,45.97
2022-12-19T19:21:00.676Z,52.70
2022-12-19T19:24:07.795Z,70.43
2022-12-19T19:26:55.879Z,51.55
2022-12-19T19:29:43.565Z,46.10
2022-12-19T19:32:33.060Z,41.17
2022-12-19T19:35:22.236Z,40.50
2022-12-19T19:38:13.530Z,53.83
2022-12-19T19:41:01.327Z,41.63
2022-12-19T19:43:48.983Z,39.60
2022-12-19T19:46:37.777Z,39.70
2022-12-19T19:49:26.076Z,44.13
2022-12-19T19:52:13.943Z,45.53
2022-12-19T19:55:03.957Z,47.13
2022-12-19T19:57:53.375Z,29.10
2022-12-19T20:00:41.152Z,44.40
2022-12-19T20:03:29.188Z,60.60
2022-12-19T20:06:19.635Z,48.77
2022-12-19T20:09:07.605Z,44.77
2022-12-19T20:11:56.427Z,38.70
2022-12-19T20:14:44.899Z,43.13
2022-12-19T20:17:32.601Z,49.73
2022-12-19T20:20:20.360Z,45.17
2022-12-19T20:23:28.414Z,41.33
2022-12-19T20:26:17.259Z,43.27
2022-12-19T20:29:06.746Z,56.53
2022-12-19T20:31:56.832Z,48.63
2022-12-19T20:34:45.208Z,34.13
2022-12-19T20:37:36.376Z,49.80
2022-12-19T20:40:37.493Z,38.53
2022-12-19T20:43:25.643Z,38.07
2022-12-19T20:46:16.007Z,29.13
2022-12-19T20:49:04.027Z,43.07
2022-12-19T20:51:52.317Z,39.20
2022-12-19T20:54:40.374Z,45.87
2022-12-19T20:57:30.741Z,41.70
2022-12-19T21:00:19.156Z,34.73
2022-12-19T21:06:16.688Z,30.70
2022-12-19T21:09:05.938Z,44.83
2022-12-19T21:11:53.947Z,38.90
2022-12-19T21:14:41.638Z,39.93
2022-12-19T21:17:29.372Z,31.90
2022-12-19T21:20:17.119Z,35.97
2022-12-19T21:23:05.438Z,45.07
2022-12-19T21:25:56.635Z,28.47
2022-12-19T21:28:45.842Z,32.80
2022-12-19T21:31:33.599Z,37.10
2022-12-19T21:34:21.236Z,34.80
2022-12-19T21:37:09.391Z,35.93
2022-12-19T21:39:58.137Z,32.27
2022-12-19T21:42:46.123Z,36.90
2022-12-19T21:45:33.844Z,31.40
2022-12-19T21:48:21.445Z,30.17
2022-12-19T21:51:10.284Z,37.77
2022-12-19T21:54:03.418Z,38.63
2022-12-19T21:56:51.506Z,36.67
2022-12-19T21:59:42.626Z,35.60
2022-12-19T22:02:30.501Z,40.67
2022-12-19T22:05:18.353Z,37.40
2022-12-19T22:08:06.202Z,40.30
2022-12-19T22:10:55.939Z,36.60
2022-12-19T22:13:44.985Z,41.17
2022-12-19T22:16:35.733Z,36.88
2022-12-19T22:19:23.553Z,37.47
2022-12-19T22:22:11.238Z,38.40
2022-12-19T22:24:58.985Z,38.93
2022-12-19T22:27:46.657Z,40.70
2022-12-19T22:30:37.435Z,33.87
2022-12-19T22:33:25.195Z,29.47
2022-12-19T22:36:15.493Z,35.43
2022-12-19T22:39:06.915Z,27.50
2022-12-19T22:41:54.673Z,28.20
2022-12-19T22:44:42.269Z,35.87
2022-12-19T22:47:30.067Z,38.90
2022-12-19T22:50:17.790Z,39.47
2022-12-19T22:53:11.050Z,38.87
2022-12-19T22:56:08.003Z,32.23
2022-12-19T22:58:59.477Z,36.27
2022-12-19T23:01:47.394Z,29.35
2022-12-19T23:04:36.237Z,33.97
2022-12-19T23:07:24.797Z,36.07
2022-12-19T23:10:12.890Z,33.03
2022-12-19T23:13:00.593Z,37.03
2022-12-19T23:15:48.339Z,33.53
2022-12-19T23:18:36.076Z,35.13
2022-12-19T23:21:25.439Z,32.37
2022-12-19T23:24:13.362Z,34.53
2022-12-19T23:27:01.311Z,37.83
2022-12-19T23:29:49.978Z,38.03
2022-12-19T23:32:37.745Z,28.20
2022-12-19T23:35:25.459Z,37.97
2022-12-19T23:38:13.147Z,33.17
2022-12-19T23:41:06.597Z,39.07
2022-12-19T23:43:55.149Z,29.20
2022-12-19T23:46:42.778Z,36.43
2022-12-19T23:49:30.568Z,43.83
2022-12-19T23:52:18.211Z,40.67
2022-12-19T23:55:06.768Z,30.77
2022-12-19T23:57:54.480Z,32.17
